• Join FlightAware (Why Join?)
  • Login
  • US Flag 
10:37PM EST


 

Airport Tracker/Info


-or-


 

Live Flight TrackerFlight Track Log ✈ AWE1761 ✈ 23-Aug-2014 ✈ TIST / STT - KPHL

Flight Track Log - Related Links

Times and Time Zones

All times are in EDT time to prevent confusion due to time zone crossing. See the AWE1761 flight status page for this flight to view local times or setup timezone preferences in your user account.

Time Position Orientation Groundspeed Altitude Reporting Facility
EDT Latitude Longitude Course Direction KTS MPH feet Rate Location/Type
12:42PM 18.7741 -65.1435 337° Northwest  Level Estimated
12:42PM 18.2651 -65.0988 301° West 303 349 7,800  Level FlightAware ADS-B (TNCM / SXM)
12:42PM 18.2720 -65.1086 312° West 307 353 8,100 2,100 Climbing FlightAware ADS-B (TNCM / SXM)
12:42PM 18.2751 -65.1118 321° Northwest 309 356 8,300 2,100 Climbing FlightAware ADS-B (TNCM / SXM)
12:42PM 18.2907 -65.1225 333° Northwest 311 358 8,700 2,460 Climbing FlightAware ADS-B (TNCM / SXM)
12:42PM 18.3103 -65.1326 335° Northwest 313 360 9,300 1,620 Climbing FlightAware ADS-B (TNCM / SXM)
12:44PM 18.4133 -65.1867 335° Northwest 315 362 11,200 1,440 Climbing FlightAware ADS-B (TNCM / SXM)
12:45PM 18.4998 -65.2341 332° Northwest 396 456 12,500 1,800 Climbing FlightAware ADS-B (TNCM / SXM)
12:46PM 18.6004 -65.2902 333° Northwest 400 460 14,700 1,980 Climbing FlightAware ADS-B (TNCM / SXM)
12:47PM 18.7185 -65.3529 334° Northwest 410 472 16,900 1,740 Climbing FlightAware ADS-B (TNCM / SXM)
12:47PM 18.7669 -65.3785 334° Northwest 414 476 17,600 1,680 Climbing FlightAware ADS-B (TNCM / SXM)
12:49PM 18.9799 -65.4931 333° Northwest 437 503 21,200 1,500 Climbing FlightAware ADS-B (TNCM / SXM)
12:54PM 19.4776 -65.7307 339° North 486 559 27,400 1,380 Climbing FlightAware ADS-B (TNCM / SXM)
12:54PM 19.5996 -65.7754 341° North 488 562 28,600 1,500 Climbing FlightAware ADS-B (TNCM / SXM)
12:56PM 19.7770 -65.8327 344° North 486 559 31,000 1,680 Climbing FlightAware ADS-B (TNCM / SXM)
12:56PM 19.8361 -65.8512 344° North 485 558 31,700 1,920 Climbing FlightAware ADS-B (TNCM / SXM)
12:57PM 19.9182 -65.8766 344° North 479 551 33,000 1,620 Climbing FlightAware ADS-B (TNCM / SXM)
12:59PM 20.1438 -65.9582 337° Northwest 466 536 35,700 960 Climbing FlightAware ADS-B (TNCM / SXM)
01:00PM 20.2833 -66.0167 337° Northwest 460 529 36,000 120 Climbing San Juan Center
01:01PM 20.4000 -66.0667 338° Northwest 440 506 36,000 480 Level San Juan Center
01:03PM 20.6167 -66.2167 327° Northwest 450 518 37,600 660 Climbing San Juan Center
01:04PM 20.7167 -66.2833 328° Northwest 440 506 38,000 120 Climbing San Juan Center
01:06PM 20.9333 -66.4333 317° Northwest 450 518 38,000  Level San Juan Center
01:07PM 21.0500 -66.4833 338° Northwest 450 518 38,000  Level San Juan Center
01:08PM 21.1500 -66.5500 328° Northwest 460 529 38,000  Level San Juan Center
01:09PM 21.2667 -66.6333 326° Northwest 450 518 38,000  Level San Juan Center
01:11PM 21.4500 -66.7833 325° Northwest 440 506 38,000  Level San Juan Center
01:12PM 21.5667 -66.8333 338° Northwest 440 506 38,000  Level San Juan Center
01:14PM 21.8000 -66.9333 338° Northwest 440 506 38,000  Level San Juan Center
01:15PM 21.9167 -67.0000 332° Northwest 450 518 38,000  Level San Juan Center
01:23PM 22.2333 -67.3167 349° North 455 524 38,000  Level New York Oceanic (ODAPS)
01:46PM 25.4667 -68.0000 349° North 429 494 38,000  Level New York Oceanic (ODAPS)
02:08PM 27.9333 -68.5333 349° North 451 519 38,000  Level New York Oceanic (ODAPS)
02:32PM 30.9000 -69.2333 349° North 419 482 38,000  Level New York Oceanic (ODAPS)
02:56PM 33.3000 -69.8167 348° North 410 472 38,000  Level New York Oceanic (ODAPS)
03:15PM 35.7667 -70.4500 348° North 422 486 38,000  Level New York Oceanic (ODAPS)
03:26PM 37.1222 -70.8186 347° North 446 513 38,000  Level New York Center
03:27PM 37.2581 -70.8554 348° North 422 486 38,000  Level FlightAware Transoceanic
03:27PM 37.2347 -70.8581 344° North 432 497 38,000  Level New York Center
03:28PM 37.3727 -70.8872 348° North 422 486 38,000  Level FlightAware Transoceanic
03:28PM 37.3411 -70.9156 337° Northwest 427 491 38,000  Level New York Center
03:29PM 37.4874 -70.9192 348° North 422 486 38,000  Level FlightAware Transoceanic
03:29PM 37.4056 -71.0361 304° West 406 467 38,000  Level New York Center
03:30PM 37.6020 -70.9512 347° North 422 486 38,000  Level FlightAware Transoceanic
03:30PM 37.4614 -71.1644 299° West 412 474 38,000  Level New York Center
03:31PM 37.5256 -71.2983 301° West 412 474 38,000  Level New York Center
03:32PM 37.5769 -71.4403 295° West 417 480 38,000  Level New York Center
03:33PM 37.6386 -71.5564 304° West 418 481 38,000  Level New York Center
03:34PM 37.6942 -71.6856 299° West 413 475 38,000  Level New York Center
03:35PM 37.7514 -71.8125 300° West 413 475 38,000  Level New York Center
03:36PM 37.8044 -71.9394 298° West 413 475 38,000  Level New York Center
03:37PM 37.8614 -72.0586 301° West 413 475 38,000  Level New York Center
03:38PM 37.9164 -72.1886 298° West 413 475 38,000  Level New York Center
03:39PM 37.9731 -72.3161 299° West 413 475 38,000  Level New York Center
03:40PM 38.0275 -72.4467 298° West 418 481 38,000  Level New York Center
03:41PM 38.0839 -72.5772 299° West 407 468 38,000 -240 Level New York Center
03:42PM 38.1358 -72.7158 296° West 412 474 37,600 -1,680 Descending New York Center
03:43PM 38.1964 -72.8442 301° West 426 490 34,600 -2,280 Descending New York Center
03:44PM 38.2522 -72.9756 298° West 426 490 33,100 -2,460 Descending New York Center
03:45PM 38.3081 -73.1069 298° West 426 490 29,800 -2,820 Descending New York Center
03:47PM 38.4194 -73.3650 299° West 420 483 24,700 -2,460 Descending New York Center
03:48PM 38.4708 -73.4889 298° West 409 471 22,400 -2,340 Descending New York Center
03:49PM 38.5469 -73.6681 299° West 384 442 18,700 -2,340 Descending Washington Center
03:50PM 38.5942 -73.7819 298° West 368 423 16,400 -1,380 Descending Washington Center
03:51PM 38.6472 -73.8931 301° West 365 420 15,900 -300 Descending Washington Center
03:52PM 38.7011 -73.9997 303° West 360 414 15,900  Level Washington Center
03:54PM 38.7567 -74.1069 304° West 361 415 15,900 -840 Level Washington Center
04:00PM 39.2495 -74.6719 319° Northwest 354 407 9,900 -840 Descending FlightAware ADS-B (KPHL)
04:01PM 39.3079 -74.7378 320° Northwest 305 351 9,900 -360 Level FlightAware ADS-B (KPHL)
04:02PM 39.3815 -74.8195 319° Northwest 279 321 9,200 -480 Descending FlightAware ADS-B (KPHL)
04:03PM 39.4423 -74.8881 319° Northwest 282 325 8,900 -300 Descending FlightAware ADS-B (KPHL)
04:04PM 39.5022 -74.9515 320° Northwest 279 321 8,600 -900 Descending FlightAware ADS-B (KPHL)
04:05PM 39.5286 -75.0423 276° West 281 323 7,200 -1,380 Descending FlightAware ADS-B (KPHL)
04:06PM 39.5437 -75.1360 298° West 280 322 5,900 -660 Descending FlightAware ADS-B (KPHL)
04:07PM 39.5781 -75.2166 299° West 269 310 5,900 -300 Level FlightAware ADS-B (KPHL)
04:08PM 39.6160 -75.3055 299° West 236 272 5,400 -840 Descending FlightAware ADS-B (KPHL)
04:09PM 39.6527 -75.3704 310° West 234 269 4,300 -1,140 Descending FlightAware ADS-B (KPHL)
04:10PM 39.6780 -75.4100 334° Northwest 230 265 3,200 -840 Descending FlightAware ADS-B (KPHL)
04:11PM 39.7408 -75.4577 336° Northwest 193 222 2,700 -720 Descending FlightAware ADS-B (KPHL)
04:12PM 39.7938 -75.4686 54° Northeast 165 190 1,800 -540 Descending FlightAware ADS-B (KPHL)
04:13PM 39.8189 -75.4146 75° East 159 183 1,700 -360 Descending FlightAware ADS-B (KPHL)
04:14PM 39.8292 -75.3615 75° East 121 139 1,100 -600 Descending FlightAware ADS-B (KPHL)
04:15PM 39.8376 -75.3202 76° East 122 140 500 -660 Descending FlightAware ADS-B (KPHL)
04:16PM 39.8457 -75.2802 76° East 124 143 -540 Descending FlightAware ADS-B (KPHL)